createdAt,value
2022-08-16T00:02:52.723Z,23.11
2022-08-16T00:05:21.101Z,23.05
2022-08-16T00:07:49.731Z,23.01
2022-08-16T00:10:25.887Z,22.97
2022-08-16T00:12:53.732Z,22.93
2022-08-16T00:15:50.963Z,22.90
2022-08-16T00:18:15.191Z,22.85
2022-08-16T00:20:43.314Z,22.82
2022-08-16T00:23:11.609Z,22.79
2022-08-16T00:26:33.536Z,22.73
2022-08-16T00:28:28.549Z,22.69
2022-08-16T00:30:59.197Z,22.68
2022-08-16T00:33:28.729Z,22.67
2022-08-16T00:35:58.580Z,22.67
2022-08-16T00:38:40.039Z,22.68
2022-08-16T00:41:09.638Z,22.69
2022-08-16T00:43:43.465Z,22.70
2022-08-16T00:46:33.198Z,22.68
2022-08-16T00:49:04.683Z,22.65
2022-08-16T00:51:33.609Z,22.64
2022-08-16T00:54:01.868Z,22.64
2022-08-16T00:56:57.474Z,22.61
2022-08-16T00:59:21.719Z,22.61
2022-08-16T01:01:51.752Z,22.62
2022-08-16T01:04:28.950Z,22.62
2022-08-16T01:07:01.714Z,22.62
2022-08-16T01:09:34.205Z,22.62
2022-08-16T01:12:03.200Z,22.62
2022-08-16T01:14:35.752Z,22.62
2022-08-16T01:17:03.872Z,22.61
2022-08-16T01:19:40.766Z,22.60
2022-08-16T01:22:48.692Z,22.56
2022-08-16T01:24:57.684Z,22.52
2022-08-16T01:27:34.350Z,22.50
2022-08-16T01:30:19.760Z,22.45
2022-08-16T01:33:01.186Z,22.43
2022-08-16T01:35:35.023Z,22.38
2022-08-16T01:38:25.736Z,22.29
2022-08-16T01:40:55.202Z,22.21
2022-08-16T01:43:24.529Z,22.16
2022-08-16T01:45:57.591Z,22.14
2022-08-16T01:48:27.630Z,22.13
2022-08-16T01:51:16.419Z,22.11
2022-08-16T01:53:44.082Z,22.10
2022-08-16T01:56:25.897Z,22.07
2022-08-16T01:58:57.892Z,22.06
2022-08-16T02:01:28.190Z,22.05
2022-08-16T02:03:58.674Z,22.04
2022-08-16T02:06:45.998Z,22.02
2022-08-16T02:09:17.891Z,22.01
2022-08-16T02:11:53.353Z,22.00
2022-08-16T02:14:26.309Z,21.97
2022-08-16T02:16:58.184Z,21.94
2022-08-16T02:19:59.232Z,21.91
2022-08-16T02:22:35.934Z,21.89
2022-08-16T02:25:07.136Z,21.83
2022-08-16T02:27:41.893Z,21.81
2022-08-16T02:30:36.998Z,21.81
2022-08-16T02:33:03.738Z,21.82
2022-08-16T02:35:32.189Z,21.84
2022-08-16T02:38:01.641Z,21.84
2022-08-16T02:40:37.376Z,21.84
2022-08-16T02:43:05.436Z,21.86
2022-08-16T02:45:33.216Z,21.85
2022-08-16T02:48:28.870Z,21.86
2022-08-16T02:50:55.296Z,21.87
2022-08-16T02:53:35.478Z,21.89
2022-08-16T02:56:04.086Z,21.89
2022-08-16T02:58:32.666Z,21.89
2022-08-16T03:01:01.102Z,21.90
2022-08-16T03:04:41.058Z,21.92
2022-08-16T03:06:42.263Z,21.95
2022-08-16T03:09:14.780Z,21.97
2022-08-16T03:11:47.559Z,22.00
2022-08-16T03:14:21.075Z,22.02
2022-08-16T03:16:59.238Z,22.04
2022-08-16T03:19:47.431Z,22.07
2022-08-16T03:22:19.540Z,22.09
2022-08-16T03:24:57.264Z,22.10
2022-08-16T03:27:31.187Z,22.10
2022-08-16T03:30:16.333Z,22.10
2022-08-16T03:32:51.623Z,22.09
2022-08-16T03:35:21.932Z,22.07
2022-08-16T03:38:02.519Z,22.06
2022-08-16T03:40:34.058Z,22.07
2022-08-16T03:43:20.142Z,22.09
2022-08-16T03:45:52.513Z,22.09
2022-08-16T03:48:36.798Z,22.06
2022-08-16T03:51:13.088Z,22.02
2022-08-16T03:53:57.743Z,21.98
2022-08-16T03:56:30.339Z,21.99
2022-08-16T03:58:58.902Z,22.03
2022-08-16T04:01:30.021Z,22.08
2022-08-16T04:03:57.983Z,22.13
2022-08-16T04:06:27.732Z,22.16
2022-08-16T04:08:55.726Z,22.17
2022-08-16T04:11:25.337Z,22.19
2022-08-16T04:14:01.619Z,22.21
2022-08-16T04:16:39.402Z,22.25
2022-08-16T04:19:31.462Z,22.32
2022-08-16T04:22:01.043Z,22.37
2022-08-16T04:24:41.738Z,22.44
2022-08-16T04:27:24.515Z,22.51
2022-08-16T04:30:02.571Z,22.59
2022-08-16T04:32:33.846Z,22.65
2022-08-16T04:35:09.320Z,22.70
2022-08-16T04:37:43.170Z,22.78
2022-08-16T04:40:21.550Z,22.85
2022-08-16T04:42:50.777Z,22.93
2022-08-16T04:45:18.832Z,23.00
2022-08-16T04:48:06.483Z,23.08
2022-08-16T04:50:43.486Z,23.12
2022-08-16T04:53:16.589Z,23.18
2022-08-16T04:55:47.375Z,23.22
2022-08-16T04:58:44.379Z,23.29
2022-08-16T05:01:09.691Z,23.36
2022-08-16T05:03:41.986Z,23.43
2022-08-16T05:06:42.461Z,23.52
2022-08-16T05:09:36.509Z,23.64
2022-08-16T05:12:07.173Z,23.78
2022-08-16T05:14:45.707Z,23.91
2022-08-16T05:17:16.729Z,24.06
2022-08-16T05:19:46.870Z,24.17
2022-08-16T05:22:28.414Z,24.30
2022-08-16T05:24:57.325Z,24.42
2022-08-16T05:27:25.392Z,24.55
2022-08-16T05:29:57.795Z,24.69
2022-08-16T05:32:32.677Z,24.81
2022-08-16T05:35:03.704Z,24.96
2022-08-16T05:37:39.718Z,25.05
2022-08-16T05:40:10.077Z,25.14
2022-08-16T05:42:46.146Z,25.22
2022-08-16T05:45:21.836Z,25.33
2022-08-16T05:47:59.502Z,25.47
2022-08-16T05:50:34.295Z,25.67
2022-08-16T05:53:03.611Z,25.86
2022-08-16T05:55:40.895Z,25.96
2022-08-16T05:58:08.982Z,26.03
2022-08-16T06:00:56.862Z,26.07
2022-08-16T06:03:25.429Z,26.07
2022-08-16T06:06:00.925Z,26.04
2022-08-16T06:08:42.379Z,26.04
2022-08-16T06:11:15.250Z,26.04
2022-08-16T06:13:47.495Z,26.04
2022-08-16T06:16:18.824Z,26.09
2022-08-16T06:18:48.596Z,26.07
2022-08-16T06:21:22.767Z,26.10
2022-08-16T06:23:54.701Z,26.14
2022-08-16T06:26:34.837Z,26.22
2022-08-16T06:29:05.180Z,26.29
2022-08-16T06:31:38.385Z,26.37
2022-08-16T06:34:55.535Z,26.50
2022-08-16T06:37:04.067Z,26.67
2022-08-16T06:39:49.446Z,26.76
2022-08-16T06:42:39.211Z,26.83
2022-08-16T06:45:38.109Z,26.88
2022-08-16T06:48:14.408Z,26.85
2022-08-16T06:50:50.206Z,26.84
2022-08-16T06:53:19.016Z,26.79
2022-08-16T06:55:58.630Z,26.70
2022-08-16T06:58:31.629Z,26.67
2022-08-16T07:01:09.616Z,26.73
2022-08-16T07:03:55.442Z,26.68
2022-08-16T07:06:26.686Z,26.72
2022-08-16T07:08:56.884Z,26.84
2022-08-16T07:11:48.052Z,27.00
2022-08-16T07:14:24.298Z,27.24
2022-08-16T07:16:58.368Z,27.43
2022-08-16T07:19:33.648Z,27.66
2022-08-16T07:22:37.569Z,27.75
2022-08-16T07:25:04.215Z,27.78
2022-08-16T07:27:33.822Z,27.76
2022-08-16T07:30:40.438Z,27.87
2022-08-16T07:32:57.759Z,28.07
2022-08-16T07:35:25.587Z,28.39
2022-08-16T07:37:54.347Z,28.75
2022-08-16T07:40:58.397Z,29.13
2022-08-16T07:43:16.026Z,29.56
2022-08-16T07:45:44.781Z,29.52
2022-08-16T07:48:19.534Z,29.33
2022-08-16T07:50:56.451Z,29.33
2022-08-16T07:53:29.023Z,29.65
2022-08-16T07:55:57.776Z,30.12
2022-08-16T07:58:33.828Z,30.57
2022-08-16T08:01:10.741Z,30.68
2022-08-16T08:03:53.658Z,30.62
2022-08-16T08:06:28.568Z,30.59
2022-08-16T08:08:59.501Z,30.57
2022-08-16T08:11:28.671Z,30.65
2022-08-16T08:14:03.547Z,30.78
2022-08-16T08:16:35.639Z,30.90
2022-08-16T08:19:04.178Z,31.06
2022-08-16T08:22:01.268Z,31.19
2022-08-16T08:24:36.108Z,31.37
2022-08-16T08:27:05.449Z,31.55
2022-08-16T08:29:37.574Z,31.75
2022-08-16T08:32:57.377Z,31.95
2022-08-16T08:35:00.364Z,32.09
2022-08-16T08:37:53.924Z,32.27
2022-08-16T08:40:24.542Z,32.57
2022-08-16T08:43:00.313Z,32.83
2022-08-16T08:45:48.542Z,33.09
2022-08-16T08:48:33.546Z,33.28
2022-08-16T08:51:04.438Z,33.44
2022-08-16T08:53:34.327Z,33.60
2022-08-16T08:56:22.550Z,33.79
2022-08-16T08:58:54.753Z,34.20
2022-08-16T09:01:36.718Z,35.62
2022-08-16T09:04:10.823Z,37.44
2022-08-16T09:06:44.346Z,38.55
2022-08-16T09:09:16.992Z,39.22
2022-08-16T09:11:53.363Z,40.28
2022-08-16T09:14:28.680Z,40.94
2022-08-16T09:17:03.893Z,41.99
2022-08-16T09:19:40.860Z,43.74
2022-08-16T09:22:20.924Z,45.21
2022-08-16T09:24:53.633Z,46.96
2022-08-16T09:27:26.542Z,47.68
2022-08-16T09:29:59.807Z,47.40
2022-08-16T09:32:30.692Z,47.04
2022-08-16T09:34:59.705Z,46.78
2022-08-16T09:37:36.463Z,47.06
2022-08-16T09:40:31.668Z,47.36
2022-08-16T09:42:58.753Z,48.38
2022-08-16T09:45:28.989Z,48.85
2022-08-16T09:47:58.442Z,49.44
2022-08-16T09:50:36.978Z,49.37
2022-08-16T09:53:15.589Z,48.59
2022-08-16T09:55:49.095Z,47.83
2022-08-16T09:58:41.727Z,47.72
2022-08-16T10:01:06.389Z,49.11
2022-08-16T10:03:36.690Z,50.70
2022-08-16T10:06:04.849Z,51.99
2022-08-16T10:08:33.702Z,53.23
2022-08-16T10:11:50.397Z,53.76
2022-08-16T10:14:19.912Z,53.36
2022-08-16T10:17:00.026Z,52.43
2022-08-16T10:19:32.063Z,52.65
2022-08-16T10:22:04.977Z,53.64
2022-08-16T10:24:33.764Z,54.46
2022-08-16T10:27:22.261Z,55.24
2022-08-16T10:29:59.479Z,55.45
2022-08-16T10:32:32.313Z,54.89
2022-08-16T10:35:00.300Z,54.04
2022-08-16T10:37:32.547Z,52.62
2022-08-16T10:40:05.301Z,51.14
2022-08-16T10:42:32.988Z,49.89
2022-08-16T10:45:02.822Z,48.81
2022-08-16T10:47:34.381Z,48.45
2022-08-16T10:50:06.939Z,48.06
2022-08-16T10:52:49.649Z,47.28
2022-08-16T10:58:11.708Z,45.28
2022-08-16T11:00:40.857Z,44.10
2022-08-16T11:03:43.060Z,43.27
2022-08-16T11:06:00.798Z,42.47
2022-08-16T11:08:35.183Z,41.70
2022-08-16T11:11:11.701Z,40.92
2022-08-16T11:19:17.545Z,38.96
2022-08-16T11:24:41.752Z,38.42
2022-08-16T11:27:24.114Z,38.53
2022-08-16T11:29:55.746Z,38.47
2022-08-16T11:32:31.181Z,38.39
2022-08-16T11:35:14.138Z,38.13
2022-08-16T11:40:36.373Z,37.44
2022-08-16T11:43:04.718Z,36.82
2022-08-16T11:45:34.926Z,36.29
2022-08-16T11:48:03.617Z,35.82
2022-08-16T11:50:33.587Z,35.42
2022-08-16T11:53:02.467Z,35.03
2022-08-16T11:55:31.759Z,34.62
2022-08-16T11:58:00.514Z,34.22
2022-08-16T12:00:34.205Z,33.84
2022-08-16T12:03:17.086Z,33.41
2022-08-16T12:05:45.313Z,33.02
2022-08-16T12:08:14.966Z,32.74
2022-08-16T12:10:46.696Z,32.44
2022-08-16T12:16:03.712Z,31.82
2022-08-16T12:18:30.123Z,31.59
2022-08-16T12:20:58.314Z,31.33
2022-08-16T12:23:26.266Z,31.04
2022-08-16T12:25:53.289Z,30.78
2022-08-16T12:28:25.322Z,30.56
2022-08-16T12:31:03.937Z,30.37
2022-08-16T12:33:31.837Z,30.24
2022-08-16T12:36:09.919Z,30.18
2022-08-16T12:38:46.667Z,30.17
2022-08-16T12:41:14.394Z,30.25
2022-08-16T12:43:51.373Z,30.41
2022-08-16T12:46:18.827Z,30.54
2022-08-16T12:48:57.065Z,30.64
2022-08-16T12:51:26.182Z,30.83
2022-08-16T12:53:59.983Z,31.06
2022-08-16T12:56:29.158Z,31.23
2022-08-16T12:58:56.268Z,31.39
2022-08-16T13:01:26.082Z,31.58
2022-08-16T13:04:08.188Z,31.79
2022-08-16T13:06:39.263Z,31.98
2022-08-16T13:09:19.407Z,32.12
2022-08-16T13:11:49.225Z,32.17
2022-08-16T13:14:31.206Z,32.10
2022-08-16T13:17:00.277Z,31.90
2022-08-16T13:19:35.142Z,31.67
2022-08-16T13:22:19.537Z,31.45
2022-08-16T13:24:46.190Z,31.29
2022-08-16T13:27:12.886Z,31.19
2022-08-16T13:29:44.011Z,31.12
2022-08-16T13:32:40.226Z,31.04
2022-08-16T13:34:57.775Z,30.93
2022-08-16T13:37:24.001Z,30.87
2022-08-16T13:39:52.406Z,30.80
2022-08-16T13:42:19.835Z,30.61
2022-08-16T13:44:56.595Z,30.40
2022-08-16T13:47:25.257Z,30.22
2022-08-16T13:49:56.576Z,30.12
2022-08-16T13:52:24.259Z,30.07
2022-08-16T13:54:51.351Z,30.01
2022-08-16T13:57:17.679Z,29.85
2022-08-16T13:59:44.262Z,29.65
2022-08-16T14:02:11.836Z,29.46
2022-08-16T14:04:38.593Z,29.36
2022-08-16T14:07:08.369Z,29.33
2022-08-16T14:09:35.836Z,29.37
2022-08-16T14:12:09.592Z,29.54
2022-08-16T14:14:43.650Z,29.85
2022-08-16T14:17:10.075Z,30.12
2022-08-16T14:19:37.345Z,30.31
2022-08-16T14:22:19.696Z,30.46
2022-08-16T14:24:57.897Z,30.56
2022-08-16T14:27:27.145Z,30.65
2022-08-16T14:29:54.220Z,30.83
2022-08-16T14:32:33.219Z,31.08
2022-08-16T14:35:10.985Z,31.21
2022-08-16T14:37:38.175Z,31.22
2022-08-16T14:40:05.423Z,31.19
2022-08-16T14:42:31.749Z,31.10
2022-08-16T14:45:00.230Z,30.95
2022-08-16T14:47:31.577Z,30.79
2022-08-16T14:50:01.368Z,30.59
2022-08-16T14:52:54.166Z,30.36
2022-08-16T14:55:14.618Z,30.11
2022-08-16T14:57:40.966Z,29.89
2022-08-16T15:00:08.942Z,29.67
2022-08-16T15:02:39.073Z,29.53
2022-08-16T15:05:07.368Z,29.41
2022-08-16T15:07:35.948Z,29.34
2022-08-16T15:10:03.822Z,29.34
2022-08-16T15:12:33.483Z,29.42
2022-08-16T15:15:01.223Z,29.60
2022-08-16T15:17:27.557Z,29.87
2022-08-16T15:20:01.058Z,30.15
2022-08-16T15:22:28.892Z,30.27
2022-08-16T15:24:58.675Z,30.26
2022-08-16T15:27:26.023Z,30.22
2022-08-16T15:30:02.497Z,30.18
2022-08-16T15:32:49.640Z,30.12
2022-08-16T15:35:17.311Z,29.97
2022-08-16T15:37:45.691Z,29.77
2022-08-16T15:40:26.529Z,29.55
2022-08-16T15:43:01.466Z,29.34
2022-08-16T15:45:46.069Z,29.20
2022-08-16T15:48:14.222Z,29.06
2022-08-16T15:50:43.828Z,28.89
2022-08-16T15:53:12.555Z,28.73
2022-08-16T15:55:38.973Z,28.56
2022-08-16T15:58:35.535Z,28.39
2022-08-16T16:00:51.661Z,28.20
2022-08-16T16:03:18.789Z,28.05
2022-08-16T16:05:46.254Z,27.89
2022-08-16T16:08:16.061Z,27.72
2022-08-16T16:10:54.449Z,27.56
2022-08-16T16:13:21.220Z,27.46
2022-08-16T16:15:51.726Z,27.35
2022-08-16T16:18:18.306Z,27.27
2022-08-16T16:21:04.756Z,27.19
2022-08-16T16:23:41.091Z,27.10
2022-08-16T16:26:11.719Z,27.02
2022-08-16T16:29:06.700Z,26.95
2022-08-16T16:31:26.587Z,26.88
2022-08-16T16:33:55.277Z,26.80
2022-08-16T16:36:28.179Z,26.71
2022-08-16T16:38:55.777Z,26.62
2022-08-16T16:41:23.950Z,26.53
2022-08-16T16:43:53.416Z,26.43
2022-08-16T16:46:43.076Z,26.32
2022-08-16T16:49:08.099Z,26.19
2022-08-16T16:51:40.671Z,26.08
2022-08-16T16:54:08.009Z,25.97
2022-08-16T16:56:37.579Z,25.84
2022-08-16T16:59:08.373Z,25.69
2022-08-16T17:01:57.439Z,25.54
2022-08-16T17:04:32.738Z,25.37
2022-08-16T17:07:00.251Z,25.23
2022-08-16T17:09:27.004Z,25.10
2022-08-16T17:11:55.512Z,25.00
2022-08-16T17:14:31.905Z,24.90
2022-08-16T17:16:59.008Z,24.80
2022-08-16T17:19:25.247Z,24.72
2022-08-16T17:21:58.760Z,24.63
2022-08-16T17:24:31.434Z,24.54
2022-08-16T17:27:07.056Z,24.48
2022-08-16T17:29:33.528Z,24.41
2022-08-16T17:32:02.333Z,24.36
2022-08-16T17:34:50.687Z,24.31
2022-08-16T17:37:17.420Z,24.26
2022-08-16T17:40:00.071Z,24.23
2022-08-16T17:42:39.086Z,24.19
2022-08-16T17:45:06.521Z,24.18
2022-08-16T17:47:32.777Z,24.46
2022-08-16T17:49:58.969Z,24.93
2022-08-16T17:52:27.796Z,25.26
2022-08-16T17:54:53.978Z,25.30
2022-08-16T17:57:20.289Z,25.37
2022-08-16T17:59:48.370Z,25.57
2022-08-16T18:02:43.313Z,25.75
2022-08-16T18:05:00.982Z,25.88
2022-08-16T18:07:28.230Z,25.96
2022-08-16T18:09:54.660Z,26.01
2022-08-16T18:12:51.296Z,26.04
2022-08-16T18:15:09.290Z,26.06
2022-08-16T18:17:35.599Z,26.05
2022-08-16T18:20:01.926Z,26.05
2022-08-16T18:22:30.833Z,26.04
2022-08-16T18:24:57.372Z,26.00
2022-08-16T18:27:26.883Z,25.77
2022-08-16T18:29:53.798Z,25.25
2022-08-16T18:32:21.897Z,24.78
2022-08-16T18:34:51.361Z,24.42
2022-08-16T18:37:18.417Z,24.11
2022-08-16T18:39:44.822Z,23.84
2022-08-16T18:42:11.942Z,23.60
2022-08-16T18:44:40.361Z,23.39
2022-08-16T18:47:06.748Z,23.20
2022-08-16T18:49:33.497Z,23.02
2022-08-16T18:52:00.089Z,22.86
2022-08-16T18:54:27.428Z,22.86
2022-08-16T18:56:57.569Z,23.24
2022-08-16T18:59:26.885Z,23.56
2022-08-16T19:01:53.306Z,23.76
2022-08-16T19:04:52.072Z,23.91
2022-08-16T19:07:13.448Z,24.02
2022-08-16T19:09:39.872Z,24.09
2022-08-16T19:12:06.374Z,24.16
2022-08-16T19:14:32.614Z,24.22
2022-08-16T19:16:58.786Z,24.26
2022-08-16T19:19:24.993Z,24.30
2022-08-16T19:21:51.294Z,24.33
2022-08-16T19:24:17.760Z,24.35
2022-08-16T19:26:45.373Z,24.37
2022-08-16T19:29:12.057Z,24.39
2022-08-16T19:31:39.954Z,24.40
2022-08-16T19:34:07.635Z,24.41
2022-08-16T19:36:36.100Z,24.42
2022-08-16T19:39:08.579Z,24.40
2022-08-16T19:41:40.784Z,24.38
2022-08-16T19:44:07.201Z,24.36
2022-08-16T19:46:33.719Z,24.36
2022-08-16T19:48:59.931Z,24.34
2022-08-16T19:51:26.404Z,24.32
2022-08-16T19:53:53.265Z,24.30
2022-08-16T19:56:22.433Z,24.32
2022-08-16T19:59:16.375Z,24.34
2022-08-16T20:01:41.197Z,24.36
2022-08-16T20:04:11.440Z,24.35
2022-08-16T20:06:38.907Z,24.35
2022-08-16T20:09:05.587Z,24.35
2022-08-16T20:11:31.792Z,24.34
2022-08-16T20:13:58.706Z,24.34
2022-08-16T20:16:25.103Z,24.34
2022-08-16T20:18:51.270Z,24.33
2022-08-16T20:21:17.990Z,24.33
2022-08-16T20:23:44.135Z,24.32
2022-08-16T20:26:10.301Z,24.31
2022-08-16T20:28:45.025Z,24.30
2022-08-16T20:31:22.184Z,24.25
2022-08-16T20:33:48.672Z,24.20
2022-08-16T20:36:16.238Z,24.16
2022-08-16T20:38:46.030Z,24.14
2022-08-16T20:41:12.273Z,24.13
2022-08-16T20:43:39.187Z,24.11
2022-08-16T20:46:05.406Z,24.08
2022-08-16T20:48:31.610Z,24.06
2022-08-16T20:50:57.786Z,24.05
2022-08-16T20:53:23.953Z,24.05
2022-08-16T20:55:50.296Z,24.04
2022-08-16T20:58:16.680Z,24.03
2022-08-16T21:00:44.597Z,24.01
2022-08-16T21:03:11.568Z,24.01
2022-08-16T21:05:37.859Z,23.99
2022-08-16T21:08:09.699Z,23.96
2022-08-16T21:10:50.386Z,23.95
2022-08-16T21:13:17.244Z,23.93
2022-08-16T21:15:43.961Z,23.88
2022-08-16T21:18:10.385Z,23.81
2022-08-16T21:20:37.227Z,23.74
2022-08-16T21:23:04.729Z,23.68
2022-08-16T21:25:31.404Z,23.65
2022-08-16T21:28:41.020Z,23.61
2022-08-16T21:30:44.025Z,23.59
2022-08-16T21:33:12.083Z,23.55
2022-08-16T21:35:39.379Z,23.53
2022-08-16T21:38:28.979Z,23.50
2022-08-16T21:40:52.068Z,23.47
2022-08-16T21:43:19.464Z,23.45
2022-08-16T21:45:46.417Z,23.44
2022-08-16T21:48:13.143Z,23.44
2022-08-16T21:50:40.331Z,23.42
2022-08-16T21:53:09.899Z,23.40
2022-08-16T21:55:36.547Z,23.37
2022-08-16T21:58:02.935Z,23.29
2022-08-16T22:00:30.004Z,23.24
2022-08-16T22:02:57.285Z,23.18
2022-08-16T22:05:24.068Z,23.10
2022-08-16T22:07:50.607Z,23.06
2022-08-16T22:11:04.505Z,23.05
2022-08-16T22:13:03.987Z,23.04
2022-08-16T22:15:30.181Z,23.05
2022-08-16T22:17:58.317Z,23.04
2022-08-16T22:20:25.257Z,23.03
2022-08-16T22:22:51.783Z,23.04
2022-08-16T22:25:19.126Z,23.04
2022-08-16T22:27:46.513Z,23.02
2022-08-16T22:30:12.970Z,23.01
2022-08-16T22:32:41.704Z,22.99
2022-08-16T22:35:10.805Z,22.98
2022-08-16T22:37:41.230Z,22.98
2022-08-16T22:40:27.364Z,22.97
2022-08-16T22:42:54.538Z,22.93
2022-08-16T22:45:22.540Z,22.82
2022-08-16T22:47:49.284Z,22.77
2022-08-16T22:50:15.557Z,22.73
2022-08-16T22:52:56.456Z,22.70
2022-08-16T22:55:26.008Z,22.69
2022-08-16T22:57:52.915Z,22.67
2022-08-16T23:00:20.360Z,22.66
2022-08-16T23:02:53.478Z,22.67
2022-08-16T23:05:21.752Z,22.68
2022-08-16T23:07:48.392Z,22.69
2022-08-16T23:10:14.796Z,22.70
2022-08-16T23:12:48.397Z,22.69
2022-08-16T23:15:16.395Z,22.69
2022-08-16T23:17:42.907Z,22.69
2022-08-16T23:20:10.444Z,22.68
2022-08-16T23:23:19.014Z,22.64
2022-08-16T23:25:33.346Z,22.60
2022-08-16T23:27:59.695Z,22.57
2022-08-16T23:30:26.659Z,22.53
2022-08-16T23:32:54.027Z,22.48
2022-08-16T23:35:21.861Z,22.46
2022-08-16T23:37:49.609Z,22.43
2022-08-16T23:40:16.113Z,22.41
2022-08-16T23:43:03.858Z,22.39
2022-08-16T23:45:34.423Z,22.39
2022-08-16T23:48:00.699Z,22.41
2022-08-16T23:50:27.273Z,22.42
2022-08-16T23:52:55.821Z,22.41
2022-08-16T23:55:22.363Z,22.36
2022-08-16T23:57:49.220Z,22.31
